Time;durP1;ratioP1;P1;durP2;ratioP2;P2;SDS_P1;SDS_P2;PMS_P1;PMS_P2;Temp;Humidity;BMP_temperature;BMP_pressure;BME280_temperature;BME280_humidity;BME280_pressure;Samples;Min_cycle;Max_cycle;Signal;HPM_P1;HPM_P2
2022/11/29 00:02:15;;;;;;;24.45;18.15;;;8.10;99.90;;;;;;5052617;28;20035;-84
2022/11/29 00:04:41;;;;;;;23.67;17.75;;;7.90;99.90;;;;;;5052627;28;20017;-84
2022/11/29 00:07:06;;;;;;;23.20;17.15;;;7.90;99.90;;;;;;5052593;28;20029;-83
2022/11/29 00:09:32;;;;;;;24.83;18.63;;;7.90;99.90;;;;;;5052343;28;20025;-84
2022/11/29 00:12:13;;;;;;;29.65;22.83;;;8.10;99.90;;;;;;5052317;28;20507;-85
2022/11/29 00:14:40;;;;;;;26.00;19.73;;;7.80;99.90;;;;;;5052202;28;20393;-84
2022/11/29 00:17:05;;;;;;;23.33;18.23;;;7.80;99.90;;;;;;5052235;28;20028;-84
2022/11/29 00:19:32;;;;;;;25.17;20.60;;;7.80;99.90;;;;;;5012759;28;20033;-85
2022/11/29 00:21:59;;;;;;;23.98;18.50;;;7.80;99.90;;;;;;5012605;28;20034;-84
2022/11/29 00:24:25;;;;;;;23.55;17.88;;;7.80;99.90;;;;;;5011126;28;20058;-83
2022/11/29 00:26:51;;;;;;;24.75;18.55;;;7.90;99.90;;;;;;5012588;28;20064;-84
2022/11/29 00:29:17;;;;;;;25.23;19.63;;;8.00;99.90;;;;;;5012455;28;20061;-83
2022/11/29 00:31:43;;;;;;;23.55;17.80;;;7.80;99.90;;;;;;5012260;28;20030;-83
2022/11/29 00:34:11;;;;;;;20.58;17.15;;;7.80;99.90;;;;;;5029207;28;20037;-84
2022/11/29 00:36:37;;;;;;;22.05;16.88;;;8.00;99.90;;;;;;5032258;28;20159;-83
2022/11/29 00:39:04;;;;;;;28.70;19.83;;;8.10;99.90;;;;;;5032318;28;20049;-84
2022/11/29 00:41:30;;;;;;;24.65;17.58;;;7.90;99.90;;;;;;5032725;28;20034;-84
2022/11/29 00:43:55;;;;;;;21.60;17.85;;;8.00;99.90;;;;;;5031982;28;20108;-84
2022/11/29 00:46:21;;;;;;;23.92;17.70;;;8.00;99.90;;;;;;5032335;28;20095;-84
2022/11/29 00:48:47;;;;;;;21.63;17.00;;;8.00;99.90;;;;;;5033114;28;20091;-84
2022/11/29 00:51:13;;;;;;;24.30;17.85;;;8.10;99.90;;;;;;5032067;28;20447;-83
2022/11/29 00:53:38;;;;;;;21.85;17.33;;;8.00;99.90;;;;;;5032063;28;20558;-84
2022/11/29 00:56:08;;;;;;;21.10;17.25;;;8.00;99.90;;;;;;5033009;28;20053;-84
2022/11/29 00:58:35;;;;;;;21.65;17.17;;;8.00;99.90;;;;;;5035835;28;20053;-84
2022/11/29 01:01:01;;;;;;;22.92;17.15;;;7.90;99.90;;;;;;5035800;28;20116;-83
2022/11/29 01:03:26;;;;;;;21.70;18.02;;;7.90;99.90;;;;;;5036028;28;20596;-84
2022/11/29 01:05:58;;;;;;;22.13;16.98;;;7.90;99.90;;;;;;5051120;28;20035;-84
2022/11/29 01:08:24;;;;;;;24.17;18.23;;;7.90;99.90;;;;;;5034449;28;20468;-84
2022/11/29 01:11:23;;;;;;;41.45;23.90;;;8.00;99.90;;;;;;5035191;28;20064;-84
2022/11/29 01:13:52;;;;;;;28.13;19.70;;;8.00;99.90;;;;;;5040174;28;20041;-84
2022/11/29 01:16:18;;;;;;;20.85;17.65;;;8.10;99.90;;;;;;5034614;28;20029;-84
2022/11/29 01:18:44;;;;;;;22.60;17.65;;;8.10;99.90;;;;;;5035485;28;20025;-84
2022/11/29 01:21:13;;;;;;;24.48;17.10;;;8.20;99.90;;;;;;5035738;28;20041;-84
2022/11/29 01:23:38;;;;;;;20.15;15.35;;;8.10;99.90;;;;;;5035635;28;20028;-83
2022/11/29 01:26:11;;;;;;;17.92;14.18;;;8.10;99.90;;;;;;5035422;28;20374;-84
2022/11/29 01:28:39;;;;;;;17.63;14.05;;;8.10;99.90;;;;;;5035455;28;20100;-84
2022/11/29 01:31:10;;;;;;;18.95;15.52;;;8.30;99.90;;;;;;5034503;28;20029;-84
2022/11/29 01:33:36;;;;;;;17.38;15.18;;;8.60;99.90;;;;;;5047720;28;20063;-83
2022/11/29 01:36:02;;;;;;;20.02;14.48;;;8.10;99.90;;;;;;5055508;28;20455;-84
2022/11/29 01:38:29;;;;;;;18.50;14.82;;;8.10;99.90;;;;;;5055159;28;20067;-84
2022/11/29 01:41:11;;;;;;;17.73;14.38;;;8.10;99.90;;;;;;5054927;28;20112;-84
2022/11/29 01:43:59;;;;;;;19.38;15.60;;;8.10;99.90;;;;;;5053654;28;20070;-84
2022/11/29 01:46:26;;;;;;;20.90;14.18;;;8.10;99.90;;;;;;5054611;28;20116;-84
2022/11/29 01:48:57;;;;;;;21.35;16.45;;;8.20;99.90;;;;;;5054937;28;20432;-84
2022/11/29 01:51:25;;;;;;;20.45;15.80;;;8.10;99.90;;;;;;5055828;28;20384;-84
2022/11/29 01:53:51;;;;;;;23.80;16.92;;;8.10;99.90;;;;;;5054938;28;20021;-84
2022/11/29 01:56:17;;;;;;;22.45;17.08;;;8.10;99.90;;;;;;5054601;28;20047;-83
2022/11/29 01:58:44;;;;;;;22.77;16.60;;;8.10;99.90;;;;;;5054962;28;20021;-83
2022/11/29 02:01:09;;;;;;;18.80;16.05;;;8.10;99.90;;;;;;5053048;28;20037;-84
2022/11/29 02:03:35;;;;;;;19.75;14.45;;;8.20;99.90;;;;;;5055575;28;20036;-83
2022/11/29 02:06:03;;;;;;;19.35;15.43;;;8.50;99.90;;;;;;5054663;28;20492;-84
2022/11/29 02:08:35;;;;;;;21.70;15.55;;;8.20;99.90;;;;;;5054143;28;20044;-84
2022/11/29 02:11:19;;;;;;;24.08;16.30;;;8.00;99.90;;;;;;5053820;28;20114;-85
2022/11/29 02:14:20;;;;;;;18.48;15.20;;;8.10;99.90;;;;;;5054671;28;20021;-84
2022/11/29 02:16:52;;;;;;;17.48;15.38;;;8.00;99.90;;;;;;5012354;28;20030;-84
2022/11/29 02:19:45;;;;;;;23.10;17.08;;;8.10;99.90;;;;;;5012266;28;20375;-84
2022/11/29 02:22:21;;;;;;;21.40;16.63;;;8.20;99.90;;;;;;5012298;28;20525;-84
2022/11/29 02:25:22;;;;;;;18.27;15.15;;;8.20;99.90;;;;;;5011927;28;20033;-84
2022/11/29 02:27:56;;;;;;;22.83;16.42;;;8.20;99.90;;;;;;5009648;28;20046;-83
2022/11/29 02:30:41;;;;;;;24.75;18.33;;;8.10;99.90;;;;;;5011917;28;20030;-83
2022/11/29 02:33:41;;;;;;;18.08;13.90;;;8.20;99.90;;;;;;5004159;28;20077;-84
2022/11/29 02:36:15;;;;;;;20.08;13.18;;;8.10;99.90;;;;;;4992263;28;20034;-84
2022/11/29 02:39:05;;;;;;;18.63;14.57;;;8.10;99.90;;;;;;4976036;28;20034;-83
2022/11/29 02:41:57;;;;;;;19.98;15.05;;;7.90;99.90;;;;;;4992723;28;20071;-84
2022/11/29 02:44:53;;;;;;;21.30;15.13;;;7.90;99.90;;;;;;4934600;29;20519;-84
2022/11/29 02:47:31;;;;;;;19.33;15.70;;;7.90;99.90;;;;;;4934992;29;20058;-83
2022/11/29 02:50:16;;;;;;;15.98;12.68;;;8.10;99.90;;;;;;4937753;29;20512;-84
2022/11/29 02:52:53;;;;;;;16.25;12.52;;;8.00;99.90;;;;;;4953828;29;20023;-84
2022/11/29 02:55:42;;;;;;;16.45;13.05;;;7.90;99.90;;;;;;4953293;28;20579;-84
2022/11/29 02:58:31;;;;;;;20.00;14.55;;;7.90;99.90;;;;;;4953354;28;20459;-84
2022/11/29 03:01:29;;;;;;;15.75;12.30;;;7.90;99.90;;;;;;4953163;28;20039;-84
2022/11/29 03:04:36;;;;;;;17.33;12.57;;;7.90;99.90;;;;;;4953239;28;20031;-83
2022/11/29 03:07:20;;;;;;;19.92;13.43;;;7.80;99.90;;;;;;4953108;28;20089;-84
2022/11/29 03:10:07;;;;;;;23.23;15.98;;;7.80;99.90;;;;;;4953096;28;20071;-84
2022/11/29 03:12:48;;;;;;;20.90;14.18;;;7.90;99.90;;;;;;4952953;28;20050;-83
2022/11/29 03:15:31;;;;;;;20.35;14.68;;;7.90;99.90;;;;;;4953287;29;20050;-84
2022/11/29 03:18:34;;;;;;;16.05;12.10;;;7.90;99.90;;;;;;4953660;28;20036;-84
2022/11/29 03:21:18;;;;;;;21.83;15.65;;;7.90;99.90;;;;;;4979132;28;20053;-83
2022/11/29 03:23:51;;;;;;;19.00;14.02;;;7.90;99.90;;;;;;5032941;28;20394;-83
2022/11/29 03:26:25;;;;;;;17.33;14.23;;;7.90;99.90;;;;;;5033059;28;20021;-83
2022/11/29 03:29:06;;;;;;;16.88;13.40;;;7.90;99.90;;;;;;5033132;28;20116;-83
2022/11/29 03:31:38;;;;;;;18.52;13.93;;;7.90;99.90;;;;;;5033139;28;20083;-84
2022/11/29 03:34:15;;;;;;;20.35;14.98;;;7.90;99.90;;;;;;5048087;28;20049;-83
2022/11/29 03:37:07;;;;;;;18.60;13.98;;;8.30;99.90;;;;;;5032311;28;20029;-84
2022/11/29 03:39:40;;;;;;;19.80;13.35;;;7.90;99.90;;;;;;5033381;28;20029;-84
2022/11/29 03:42:14;;;;;;;16.30;12.40;;;7.90;99.90;;;;;;5033090;28;20041;-84
2022/11/29 03:44:52;;;;;;;18.00;12.50;;;7.90;99.90;;;;;;5032686;28;20017;-83
2022/11/29 03:47:24;;;;;;;11.55;8.70;;;7.80;99.90;;;;;;5032866;28;20034;-84
2022/11/29 03:49:56;;;;;;;10.75;8.07;;;7.80;99.90;;;;;;5033270;28;20083;-84
2022/11/29 03:52:47;;;;;;;9.02;7.75;;;7.80;99.90;;;;;;5032200;28;20029;-84
2022/11/29 03:55:27;;;;;;;9.85;7.38;;;7.80;99.90;;;;;;5032668;28;20013;-84
2022/11/29 03:58:11;;;;;;;10.32;8.32;;;7.80;99.90;;;;;;5032709;28;20048;-83
2022/11/29 04:00:59;;;;;;;14.38;8.82;;;7.80;99.90;;;;;;5032286;28;20041;-84
2022/11/29 04:03:37;;;;;;;14.45;8.70;;;7.80;99.90;;;;;;5029609;28;20052;-84
2022/11/29 04:06:18;;;;;;;9.68;8.10;;;7.90;99.90;;;;;;5031306;28;20052;-84
2022/11/29 04:09:12;;;;;;;10.85;8.75;;;7.80;99.90;;;;;;5032542;28;20101;-84
2022/11/29 04:12:13;;;;;;;10.27;8.68;;;7.90;99.90;;;;;;5031131;28;20025;-84
2022/11/29 04:15:03;;;;;;;11.20;9.10;;;7.90;99.90;;;;;;5032655;28;20026;-84
2022/11/29 04:17:35;;;;;;;12.82;8.80;;;7.90;99.90;;;;;;5032510;28;20030;-83
2022/11/29 04:21:00;;;;;;;13.27;8.95;;;8.10;99.90;;;;;;5032215;28;20112;-83
2022/11/29 04:23:25;;;;;;;11.18;8.63;;;8.10;99.90;;;;;;4952095;28;20138;-83
2022/11/29 04:26:38;;;;;;;14.43;10.05;;;8.10;99.90;;;;;;4952275;29;20106;-84
2022/11/29 04:29:08;;;;;;;13.20;9.90;;;8.10;99.90;;;;;;4932772;29;20076;-84
2022/11/29 04:31:45;;;;;;;17.00;10.73;;;8.10;99.90;;;;;;4934980;29;20404;-84
2022/11/29 04:34:47;;;;;;;13.68;10.45;;;8.00;99.90;;;;;;4936843;29;20602;-84
2022/11/29 04:37:34;;;;;;;12.80;9.65;;;8.00;99.90;;;;;;4936893;29;20064;-84
2022/11/29 04:40:30;;;;;;;14.27;9.90;;;8.10;99.90;;;;;;4936828;29;20042;-84
2022/11/29 04:43:13;;;;;;;12.13;10.32;;;8.10;99.90;;;;;;4936680;29;20166;-84
2022/11/29 04:45:51;;;;;;;15.02;10.73;;;8.10;99.90;;;;;;4936955;29;20489;-84
2022/11/29 04:48:22;;;;;;;14.85;10.48;;;8.10;99.90;;;;;;4937177;29;20040;-83
2022/11/29 04:51:02;;;;;;;13.52;9.02;;;8.30;99.90;;;;;;4936519;29;20107;-82
2022/11/29 04:53:50;;;;;;;11.27;9.52;;;8.10;99.90;;;;;;4920899;29;20130;-83
2022/11/29 04:56:25;;;;;;;11.90;9.18;;;8.00;99.90;;;;;;4936945;29;20058;-84
2022/11/29 04:58:56;;;;;;;11.27;8.77;;;7.90;99.90;;;;;;4943510;28;20063;-84
2022/11/29 05:01:44;;;;;;;13.18;8.52;;;8.00;99.90;;;;;;5014796;28;20045;-84
2022/11/29 05:04:47;;;;;;;12.15;8.80;;;8.00;99.90;;;;;;5013496;28;20125;-83
2022/11/29 05:07:24;;;;;;;11.50;8.80;;;8.00;99.90;;;;;;5055642;28;20027;-83
2022/11/29 05:10:10;;;;;;;11.60;8.50;;;7.90;99.90;;;;;;5055886;28;20095;-84
2022/11/29 05:12:52;;;;;;;11.25;9.13;;;7.80;99.90;;;;;;5055734;28;20021;-83
2022/11/29 05:15:40;;;;;;;10.35;8.52;;;7.90;99.90;;;;;;5055516;28;20497;-83
2022/11/29 05:18:21;;;;;;;12.38;9.15;;;8.00;99.90;;;;;;5046887;28;20032;-84
2022/11/29 05:21:24;;;;;;;13.40;9.02;;;7.90;99.90;;;;;;5035123;28;20078;-84
2022/11/29 05:24:07;;;;;;;11.65;8.18;;;7.90;99.90;;;;;;5033247;28;20044;-83
2022/11/29 05:27:00;;;;;;;10.85;8.23;;;8.00;99.90;;;;;;5033255;28;20498;-83
2022/11/29 05:30:24;;;;;;;11.82;9.48;;;8.00;99.90;;;;;;5033298;28;20045;-84
2022/11/29 05:32:59;;;;;;;10.52;8.70;;;8.10;99.90;;;;;;4993098;28;20146;-84
2022/11/29 05:35:39;;;;;;;9.93;8.35;;;8.00;99.90;;;;;;4993660;28;20038;-84
2022/11/29 05:38:40;;;;;;;13.02;8.95;;;8.00;99.90;;;;;;4993903;28;20368;-84
2022/11/29 05:41:15;;;;;;;11.38;9.18;;;8.10;99.90;;;;;;4993845;28;20058;-84
2022/11/29 05:44:03;;;;;;;9.23;7.88;;;8.10;99.90;;;;;;4993210;28;20023;-83
2022/11/29 05:46:54;;;;;;;10.02;8.40;;;8.00;99.90;;;;;;4993838;28;20030;-84
2022/11/29 05:49:48;;;;;;;13.38;8.40;;;8.00;99.90;;;;;;4992634;28;20045;-84
2022/11/29 05:52:44;;;;;;;12.25;7.80;;;8.00;99.90;;;;;;4993284;28;20019;-84
2022/11/29 05:55:12;;;;;;;9.18;8.15;;;8.20;99.90;;;;;;4953672;28;20039;-84
2022/11/29 05:57:57;;;;;;;11.43;8.05;;;8.10;99.90;;;;;;4953772;28;20039;-86
2022/11/29 06:00:26;;;;;;;9.52;7.45;;;8.00;99.90;;;;;;4961037;28;20054;-83
2022/11/29 06:03:07;;;;;;;10.68;8.02;;;8.00;99.90;;;;;;4974232;28;20122;-83
2022/11/29 06:05:36;;;;;;;8.25;6.80;;;8.00;99.90;;;;;;4972974;28;20023;-83
2022/11/29 06:08:09;;;;;;;8.65;6.57;;;8.20;99.90;;;;;;4992928;28;20046;-83
2022/11/29 06:10:43;;;;;;;9.10;5.93;;;7.90;99.90;;;;;;4992985;28;20521;-83
2022/11/29 06:13:41;;;;;;;7.53;6.40;;;8.00;99.90;;;;;;4992356;28;20372;-82
2022/11/29 06:16:46;;;;;;;6.40;5.05;;;7.90;99.90;;;;;;4992381;28;20038;-85
2022/11/29 06:19:39;;;;;;;9.70;6.63;;;8.10;99.90;;;;;;4936538;29;20543;-86
2022/11/29 06:22:42;;;;;;;11.02;7.10;;;8.00;99.90;;;;;;4935067;29;20044;-84
2022/11/29 06:25:26;;;;;;;9.93;5.63;;;8.00;99.90;;;;;;4934884;29;20088;-84
2022/11/29 06:28:11;;;;;;;7.88;6.10;;;8.00;99.90;;;;;;4934476;29;20042;-85
2022/11/29 06:31:15;;;;;;;8.05;6.30;;;8.00;99.90;;;;;;4918427;29;20112;-81
2022/11/29 06:34:00;;;;;;;8.55;5.80;;;8.00;99.90;;;;;;4972341;28;20104;-84
2022/11/29 06:36:50;;;;;;;7.47;5.53;;;7.80;99.90;;;;;;4972190;28;20027;-85
2022/11/29 06:39:16;;;;;;;8.30;5.53;;;7.90;99.90;;;;;;4956354;28;20027;-84
2022/11/29 06:41:42;;;;;;;7.97;5.38;;;7.90;99.90;;;;;;4972796;28;20045;-84
2022/11/29 06:44:09;;;;;;;6.70;5.30;;;7.90;99.90;;;;;;4972516;28;20430;-84
2022/11/29 06:46:47;;;;;;;6.00;5.40;;;7.90;99.90;;;;;;4972358;28;20039;-84
2022/11/29 06:49:37;;;;;;;7.88;6.22;;;8.00;99.90;;;;;;4972458;28;20130;-85
2022/11/29 06:52:36;;;;;;;7.78;6.03;;;8.00;99.90;;;;;;4972626;28;20031;-85
2022/11/29 06:55:14;;;;;;;7.20;6.30;;;8.00;99.90;;;;;;4972291;28;20026;-84
2022/11/29 06:58:04;;;;;;;7.32;5.90;;;8.00;99.90;;;;;;5013824;28;20029;-84
2022/11/29 07:00:58;;;;;;;9.32;6.45;;;8.00;99.90;;;;;;5012982;28;20042;-84
2022/11/29 07:03:47;;;;;;;6.57;5.82;;;8.00;99.90;;;;;;5013561;28;20350;-84
2022/11/29 07:06:20;;;;;;;7.72;6.07;;;7.90;99.90;;;;;;5013151;28;20060;-85
2022/11/29 07:08:59;;;;;;;8.55;5.90;;;8.10;99.90;;;;;;5017726;28;20044;-86
2022/11/29 07:11:25;;;;;;;6.78;5.90;;;8.00;99.90;;;;;;5011864;28;20041;-84
2022/11/29 07:13:51;;;;;;;10.35;6.70;;;8.10;99.90;;;;;;5013548;28;20022;-87
2022/11/29 07:16:25;;;;;;;8.70;6.28;;;8.10;99.90;;;;;;5012780;28;20038;-87
2022/11/29 07:19:20;;;;;;;7.75;6.78;;;8.00;99.90;;;;;;5027216;28;20556;-86
2022/11/29 07:22:09;;;;;;;9.60;7.65;;;8.10;99.90;;;;;;5031399;28;20072;-84
2022/11/29 07:24:46;;;;;;;10.27;7.55;;;8.00;99.90;;;;;;5032028;28;20121;-84
2022/11/29 07:27:40;;;;;;;11.05;7.28;;;7.90;99.90;;;;;;5032804;28;20064;-84
2022/11/29 07:30:29;;;;;;;9.93;7.68;;;7.80;99.90;;;;;;5021281;28;20474;-84
2022/11/29 07:32:58;;;;;;;11.32;7.80;;;7.90;99.90;;;;;;5038205;28;20043;-85
2022/11/29 07:35:33;;;;;;;12.20;8.15;;;8.00;99.90;;;;;;5055839;28;20104;-85
2022/11/29 07:38:18;;;;;;;10.30;7.63;;;8.00;99.90;;;;;;5031379;28;20033;-86
2022/11/29 07:41:01;;;;;;;9.70;7.18;;;8.00;99.90;;;;;;5028098;28;20441;-87
2022/11/29 07:43:35;;;;;;;9.38;8.10;;;8.10;99.90;;;;;;5032506;28;20131;-87
2022/11/29 07:46:01;;;;;;;13.02;7.63;;;8.20;99.90;;;;;;5032030;28;20073;-87
2022/11/29 07:48:27;;;;;;;10.95;6.55;;;8.10;99.90;;;;;;5032962;28;20041;-87
2022/11/29 07:50:54;;;;;;;9.32;7.22;;;8.20;99.90;;;;;;5031818;28;20465;-87
2022/11/29 07:53:21;;;;;;;10.85;7.72;;;8.10;99.90;;;;;;5031762;28;20032;-87
2022/11/29 07:55:48;;;;;;;11.07;7.80;;;8.20;99.90;;;;;;5031670;28;20155;-87
2022/11/29 07:58:15;;;;;;;11.35;8.45;;;8.20;99.90;;;;;;5032698;28;20486;-87
2022/11/29 08:00:42;;;;;;;21.63;16.00;;;8.10;99.90;;;;;;5033366;28;20038;-87
2022/11/29 08:03:09;;;;;;;19.48;15.20;;;8.00;99.90;;;;;;5032854;28;20112;-88
2022/11/29 08:05:35;;;;;;;15.10;10.80;;;8.10;99.90;;;;;;5032223;28;20022;-88
2022/11/29 08:08:01;;;;;;;16.88;12.73;;;8.10;99.90;;;;;;5032798;28;20036;-87
2022/11/29 08:10:27;;;;;;;18.33;16.27;;;8.10;99.90;;;;;;5032790;28;20022;-87
2022/11/29 08:12:53;;;;;;;18.02;12.23;;;8.10;99.90;;;;;;5031184;28;20049;-87
2022/11/29 08:15:20;;;;;;;15.55;11.68;;;8.20;99.90;;;;;;5032403;28;20508;-87
2022/11/29 08:17:46;;;;;;;16.73;12.68;;;8.30;99.90;;;;;;5032836;28;20051;-87
2022/11/29 08:20:14;;;;;;;14.60;11.95;;;8.10;99.90;;;;;;5032809;28;20022;-87
2022/11/29 08:22:41;;;;;;;11.77;10.45;;;8.00;99.90;;;;;;5031333;28;20036;-87
2022/11/29 08:25:08;;;;;;;12.63;8.98;;;8.10;99.90;;;;;;5032513;28;20024;-87
2022/11/29 08:27:35;;;;;;;11.75;9.93;;;8.00;99.90;;;;;;5032244;28;20570;-89
2022/11/29 08:30:01;;;;;;;11.70;9.90;;;8.10;99.90;;;;;;5032696;28;20212;-89
2022/11/29 08:32:27;;;;;;;10.40;8.57;;;8.10;99.90;;;;;;5034789;28;20079;-89
2022/11/29 08:34:53;;;;;;;13.15;11.15;;;8.10;99.90;;;;;;5052600;28;20076;-87
2022/11/29 08:37:18;;;;;;;10.75;9.60;;;8.20;99.90;;;;;;5052803;28;20096;-89
2022/11/29 08:39:44;;;;;;;10.35;9.23;;;8.20;99.90;;;;;;5052213;28;20021;-88
2022/11/29 08:42:10;;;;;;;10.63;9.05;;;8.20;99.90;;;;;;5051766;28;20029;-89
2022/11/29 08:44:35;;;;;;;9.63;8.15;;;8.40;99.90;;;;;;5052445;28;20025;-87
2022/11/29 08:50:00;;;;;;;14.88;12.27;;;8.20;99.90;;;;;;5052637;28;20032;-87
2022/11/29 08:55:15;;;;;;;12.68;9.38;;;8.30;99.90;;;;;;5053104;28;20044;-87
2022/11/29 08:57:41;;;;;;;17.13;11.38;;;8.30;99.90;;;;;;5051993;28;20099;-87
2022/11/29 09:00:07;;;;;;;57.15;35.58;;;8.30;99.90;;;;;;5051065;28;20035;-87
2022/11/29 09:02:32;;;;;;;9.55;7.82;;;8.30;99.90;;;;;;5052530;28;20036;-87
2022/11/29 09:04:58;;;;;;;46.65;28.25;;;8.30;99.90;;;;;;5052672;28;20032;-87
2022/11/29 09:07:23;;;;;;;10.65;7.53;;;8.30;99.90;;;;;;5050975;28;20488;-87
2022/11/29 09:09:49;;;;;;;29.70;17.40;;;8.30;99.90;;;;;;5052159;28;20021;-87
2022/11/29 09:12:15;;;;;;;61.35;34.85;;;8.30;99.90;;;;;;5051300;28;20033;-87
2022/11/29 09:14:40;;;;;;;67.97;38.08;;;8.30;99.90;;;;;;5052100;28;20489;-87
2022/11/29 09:17:06;;;;;;;16.70;9.73;;;8.40;99.90;;;;;;5051532;28;20029;-86
2022/11/29 09:19:32;;;;;;;46.35;26.67;;;8.60;99.90;;;;;;5036338;28;20406;-87
2022/11/29 09:21:57;;;;;;;27.23;14.73;;;8.30;99.90;;;;;;5035510;28;20500;-87
2022/11/29 09:24:23;;;;;;;18.45;11.68;;;8.60;99.90;;;;;;5035736;28;20104;-87
2022/11/29 09:26:48;;;;;;;34.42;17.73;;;8.60;99.90;;;;;;5035261;28;20034;-87
2022/11/29 09:29:15;;;;;;;23.20;13.57;;;8.40;99.90;;;;;;5035508;28;20036;-87
2022/11/29 09:31:43;;;;;;;8.48;5.78;;;8.50;99.90;;;;;;5034295;28;20053;-87
2022/11/29 09:34:12;;;;;;;29.23;19.88;;;8.50;99.90;;;;;;5051989;28;20052;-87
2022/11/29 09:36:37;;;;;;;6.05;5.45;;;8.50;99.90;;;;;;5055458;28;20059;-87
2022/11/29 09:39:03;;;;;;;8.52;6.35;;;8.60;99.90;;;;;;5053986;28;20118;-87
2022/11/29 09:41:56;;;;;;;9.88;7.90;;;8.60;99.90;;;;;;5054947;28;20163;-87
2022/11/29 09:44:41;;;;;;;6.85;5.43;;;8.50;99.90;;;;;;5055116;28;20021;-87
2022/11/29 09:47:38;;;;;;;8.98;6.70;;;8.70;99.90;;;;;;5054253;28;20031;-87
2022/11/29 09:50:41;;;;;;;43.75;30.63;;;8.60;99.90;;;;;;5051975;28;20429;-87
2022/11/29 09:53:34;;;;;;;8.98;5.88;;;8.50;99.90;;;;;;5055046;28;20408;-87
2022/11/29 09:56:11;;;;;;;8.02;5.63;;;8.60;99.90;;;;;;5054831;28;20021;-87
2022/11/29 09:59:04;;;;;;;7.88;5.60;;;8.80;99.90;;;;;;5055017;28;20405;-87
2022/11/29 10:01:45;;;;;;;9.23;5.00;;;8.80;99.90;;;;;;5054746;28;20059;-87
2022/11/29 10:04:18;;;;;;;16.13;13.02;;;8.90;99.90;;;;;;5053631;28;20036;-87
2022/11/29 10:07:05;;;;;;;6.68;5.18;;;8.90;99.90;;;;;;5054665;28;20039;-87
2022/11/29 10:09:34;;;;;;;7.13;4.90;;;9.10;99.90;;;;;;5054435;28;20059;-87
2022/11/29 10:12:09;;;;;;;10.32;5.60;;;9.10;99.90;;;;;;5054539;28;20033;-87
2022/11/29 10:14:56;;;;;;;7.68;4.45;;;8.80;99.90;;;;;;5054670;28;20107;-87
2022/11/29 10:17:37;;;;;;;5.93;4.10;;;8.90;99.90;;;;;;5051224;28;20397;-86
2022/11/29 10:20:10;;;;;;;6.90;3.95;;;8.80;99.90;;;;;;5034637;28;20371;-87
2022/11/29 10:22:42;;;;;;;6.25;4.05;;;8.90;99.90;;;;;;5034506;28;20033;-87
2022/11/29 10:25:15;;;;;;;11.63;5.07;;;8.90;99.90;;;;;;5289491;22;20570;-82
2022/11/29 10:27:41;;;;;;;5.32;3.72;;;9.20;99.90;;;;;;5033992;28;20036;-82
2022/11/29 10:30:13;;;;;;;6.20;4.43;;;9.30;99.90;;;;;;5033116;28;20029;-82
2022/11/29 10:32:41;;;;;;;5.55;4.07;;;9.10;99.90;;;;;;5037996;28;20024;-82
2022/11/29 10:35:16;;;;;;;7.95;4.43;;;9.70;99.90;;;;;;5053522;28;20032;-82
2022/11/29 10:37:42;;;;;;;6.03;4.20;;;9.10;99.90;;;;;;5053061;28;20104;-82
2022/11/29 10:40:18;;;;;;;5.28;3.90;;;9.20;99.90;;;;;;5053711;28;20029;-82
2022/11/29 10:42:53;;;;;;;5.75;3.53;;;9.20;99.90;;;;;;5053523;28;20048;-82
2022/11/29 10:45:24;;;;;;;8.85;4.50;;;9.70;99.90;;;;;;5054018;28;20064;-82
2022/11/29 10:47:52;;;;;;;6.30;3.05;;;9.60;99.90;;;;;;5053131;28;20036;-82
2022/11/29 10:50:31;;;;;;;5.03;3.05;;;9.30;99.90;;;;;;5053247;28;20028;-82
2022/11/29 10:53:04;;;;;;;5.18;2.92;;;9.40;99.90;;;;;;5053472;28;20035;-82
2022/11/29 10:55:45;;;;;;;7.43;3.28;;;9.40;99.90;;;;;;5052824;28;20031;-82
2022/11/29 10:58:24;;;;;;;5.55;3.20;;;9.30;99.90;;;;;;5052922;28;20517;-82
2022/11/29 11:00:56;;;;;;;8.35;3.10;;;9.30;99.90;;;;;;5053014;28;20041;-82
2022/11/29 11:03:32;;;;;;;7.00;3.08;;;9.20;99.90;;;;;;5052837;28;20074;-82
2022/11/29 11:06:08;;;;;;;6.45;2.88;;;9.20;99.90;;;;;;5052893;28;20497;-82
2022/11/29 11:08:36;;;;;;;5.93;2.70;;;9.20;99.90;;;;;;5052515;28;20070;-82
2022/11/29 11:11:04;;;;;;;8.27;3.22;;;9.20;99.90;;;;;;5052829;28;20431;-82
2022/11/29 11:13:31;;;;;;;7.47;2.38;;;9.30;99.90;;;;;;5052158;28;20404;-82
2022/11/29 11:16:17;;;;;;;6.88;2.47;;;9.30;99.90;;;;;;5053073;28;20028;-82
2022/11/29 11:18:44;;;;;;;7.03;2.67;;;9.30;99.90;;;;;;5039140;28;20044;-82
2022/11/29 11:21:11;;;;;;;3.22;2.30;;;9.20;99.90;;;;;;5032301;28;20079;-82
2022/11/29 11:23:57;;;;;;;46.58;20.48;;;9.20;99.90;;;;;;5032500;28;20151;-82
2022/11/29 11:26:24;;;;;;;98.70;55.13;;;9.10;99.90;;;;;;5032636;28;20056;-82
2022/11/29 11:28:59;;;;;;;8.65;3.38;;;9.10;99.90;;;;;;5032636;28;20026;-82
2022/11/29 11:31:34;;;;;;;12.32;8.13;;;9.00;99.90;;;;;;5032889;28;20405;-82
2022/11/29 11:34:27;;;;;;;5.63;4.97;;;8.90;99.90;;;;;;5048179;28;20013;-82
2022/11/29 11:37:16;;;;;;;8.35;5.65;;;9.00;99.90;;;;;;5052038;28;20128;-82
2022/11/29 11:39:44;;;;;;;8.00;4.55;;;9.00;99.90;;;;;;5052347;28;20059;-82
2022/11/29 11:42:36;;;;;;;5.55;3.53;;;9.10;99.90;;;;;;5051420;28;20464;-82
2022/11/29 11:45:11;;;;;;;4.20;2.55;;;9.20;99.90;;;;;;5052245;28;20108;-82
2022/11/29 11:47:51;;;;;;;6.63;2.53;;;9.10;99.90;;;;;;5052254;28;20070;-82
2022/11/29 11:50:41;;;;;;;6.70;2.90;;;9.00;99.90;;;;;;5051794;28;20545;-83
2022/11/29 11:53:17;;;;;;;6.88;3.20;;;9.10;99.90;;;;;;5052130;28;20025;-82
2022/11/29 11:55:56;;;;;;;4.65;2.53;;;9.30;99.90;;;;;;5052110;28;20078;-82
2022/11/29 11:58:26;;;;;;;4.50;2.42;;;9.10;99.90;;;;;;5052004;28;20501;-82
2022/11/29 12:01:15;;;;;;;6.55;2.50;;;9.70;99.90;;;;;;5052094;28;20044;-82
2022/11/29 12:03:47;;;;;;;3.38;2.17;;;9.30;99.90;;;;;;5049166;28;20060;-82
2022/11/29 12:06:57;;;;;;;3.78;2.13;;;9.10;99.90;;;;;;5051520;28;20075;-82
2022/11/29 12:09:31;;;;;;;5.07;2.50;;;9.20;99.90;;;;;;5029791;28;20034;-82
2022/11/29 12:12:05;;;;;;;4.32;2.70;;;9.30;99.90;;;;;;5029885;28;20035;-82
2022/11/29 12:14:52;;;;;;;5.75;2.60;;;9.40;99.90;;;;;;5029544;28;20419;-82
2022/11/29 12:17:23;;;;;;;5.38;2.92;;;9.30;99.90;;;;;;5027996;28;20029;-82
2022/11/29 12:20:06;;;;;;;6.50;3.00;;;9.30;99.90;;;;;;5010044;28;20451;-82
2022/11/29 12:22:40;;;;;;;4.05;2.55;;;9.30;99.90;;;;;;5009918;28;20414;-82
2022/11/29 12:25:13;;;;;;;9.52;2.88;;;9.50;99.90;;;;;;5009851;28;20062;-82
2022/11/29 12:27:39;;;;;;;4.72;2.80;;;9.70;99.90;;;;;;5010328;28;20446;-82
2022/11/29 12:30:13;;;;;;;5.32;2.38;;;9.40;99.90;;;;;;5010126;28;20033;-82
2022/11/29 12:32:39;;;;;;;5.22;2.65;;;9.50;99.90;;;;;;5013935;28;20550;-82
2022/11/29 12:35:23;;;;;;;4.35;2.47;;;9.80;99.90;;;;;;5029171;28;20041;-82
2022/11/29 12:38:12;;;;;;;6.68;2.30;;;9.50;99.90;;;;;;5030064;28;20018;-82
2022/11/29 12:41:07;;;;;;;3.38;2.17;;;9.60;99.90;;;;;;5029843;28;20041;-82
2022/11/29 12:44:11;;;;;;;5.13;2.60;;;9.50;99.90;;;;;;5007576;28;20120;-82
2022/11/29 12:46:37;;;;;;;4.45;2.42;;;9.90;99.90;;;;;;5006137;28;20044;-82
2022/11/29 12:49:15;;;;;;;6.47;2.38;;;9.80;99.90;;;;;;5009511;28;20026;-82
2022/11/29 12:51:56;;;;;;;5.82;2.40;;;10.20;99.90;;;;;;5009763;28;20045;-82
2022/11/29 12:54:37;;;;;;;4.10;2.42;;;9.90;99.90;;;;;;5013867;28;20034;-82
2022/11/29 12:57:14;;;;;;;5.45;2.40;;;9.90;99.90;;;;;;5013541;28;20168;-82
2022/11/29 13:00:03;;;;;;;6.03;2.17;;;9.70;99.90;;;;;;5013609;28;20026;-82
2022/11/29 13:02:53;;;;;;;3.70;2.08;;;9.90;99.90;;;;;;5012899;28;20034;-83
2022/11/29 13:05:24;;;;;;;2.53;2.03;;;10.00;99.90;;;;;;5013215;28;20048;-82
2022/11/29 13:08:01;;;;;;;4.38;2.28;;;10.20;99.90;;;;;;5013519;28;20029;-82
2022/11/29 13:10:51;;;;;;;4.13;2.58;;;10.30;99.90;;;;;;5013641;28;20037;-82
2022/11/29 13:13:43;;;;;;;25.63;12.27;;;10.20;99.90;;;;;;5013194;28;20030;-82
2022/11/29 13:16:14;;;;;;;139.90;62.00;;;10.40;99.90;;;;;;5013124;28;20375;-82
2022/11/29 13:18:59;;;;;;;146.43;64.30;;;10.50;99.90;;;;;;5041403;28;20034;-82
2022/11/29 13:21:53;;;;;;;8.45;4.60;;;10.20;99.90;;;;;;5035418;28;20021;-82
2022/11/29 13:24:31;;;;;;;10.98;5.82;;;10.00;99.90;;;;;;5035149;28;20049;-82
2022/11/29 13:27:02;;;;;;;13.93;9.32;;;9.80;99.90;;;;;;5035019;28;20536;-82
2022/11/29 13:29:28;;;;;;;17.20;10.60;;;9.70;99.90;;;;;;5034886;28;20486;-82
2022/11/29 13:31:53;;;;;;;7.43;4.35;;;9.70;99.90;;;;;;5034921;28;20033;-82
2022/11/29 13:34:33;;;;;;;49.13;28.40;;;10.00;99.90;;;;;;5052503;28;20025;-82
2022/11/29 13:37:24;;;;;;;64.25;45.35;;;9.80;99.90;;;;;;5053016;28;20029;-83
2022/11/29 13:40:17;;;;;;;5.72;3.17;;;9.80;99.90;;;;;;5054991;28;20021;-82
2022/11/29 13:42:44;;;;;;;15.30;9.77;;;9.80;99.90;;;;;;5054643;28;20037;-82
2022/11/29 13:45:25;;;;;;;18.83;11.48;;;9.60;99.90;;;;;;5054358;28;20029;-82